ACI330 NWWW-NFFN
Flight info
| Callsign | ACI330 |
|---|---|
| Flight time | N/A |
| Altitude | 37000 |
| Route | LTO3E LTO B599 ALBAB DCT VIBEX |
| Aircraft | A20N/M-SDE2E3FGHIRWXY/LB1 |
Departure
| Time | 2026-05-08 18:59 |
|---|---|
| Airport | La Tontouta International Airport (NWWW) |
Arrival
| Time | N/A |
|---|---|
| Airport | Nadi International Airport (NFFN) |
| Time | Latitude | Longitude | Altitude | Speed | Heading |
|---|---|---|---|---|---|
| 2026-05-08 18:30 | -22.01446 | 166.21722 | 58 ft | 0 kts | 30° |
| 2026-05-08 18:47 | -22.01450 | 166.21721 | 58 ft | 1 kts | 30° |
| 2026-05-08 18:48 | -22.01461 | 166.21713 | 57 ft | 1 kts | 29° |
| 2026-05-08 18:48 | -22.01468 | 166.21709 | 57 ft | 1 kts | 30° |
| 2026-05-08 18:48 | -22.01479 | 166.21703 | 56 ft | 1 kts | 30° |
| 2026-05-08 18:48 | -22.01491 | 166.21695 | 55 ft | 2 kts | 30° |
| 2026-05-08 18:49 | -22.01503 | 166.21689 | 55 ft | 2 kts | 7° |
| 2026-05-08 18:49 | -22.01517 | 166.21689 | 55 ft | 2 kts | 347° |
| 2026-05-08 18:49 | -22.01532 | 166.21695 | 55 ft | 2 kts | 323° |
| 2026-05-08 18:49 | -22.01543 | 166.21707 | 55 ft | 2 kts | 299° |
| 2026-05-08 18:50 | -22.01549 | 166.21721 | 56 ft | 2 kts | 301° |
| 2026-05-08 18:50 | -22.01554 | 166.21729 | 56 ft | 0 kts | 301° |
| 2026-05-08 18:50 | -22.01557 | 166.21733 | 57 ft | 0 kts | 301° |
| 2026-05-08 18:52 | -22.01555 | 166.21730 | 57 ft | 2 kts | 301° |
| 2026-05-08 18:53 | -22.01520 | 166.21669 | 54 ft | 12 kts | 302° |
| 2026-05-08 18:53 | -22.01476 | 166.21590 | 52 ft | 14 kts | 302° |
| 2026-05-08 18:53 | -22.01433 | 166.21513 | 50 ft | 12 kts | 301° |
| 2026-05-08 18:53 | -22.01415 | 166.21442 | 47 ft | 4 kts | 251° |
| 2026-05-08 18:54 | -22.01419 | 166.21434 | 47 ft | 4 kts | 238° |
| 2026-05-08 18:54 | -22.01459 | 166.21388 | 46 ft | 10 kts | 238° |
| 2026-05-08 18:54 | -22.01456 | 166.21303 | 44 ft | 13 kts | 301° |
| 2026-05-08 18:54 | -22.01399 | 166.21204 | 41 ft | 16 kts | 302° |
| 2026-05-08 18:55 | -22.01268 | 166.20972 | 37 ft | 19 kts | 301° |
| 2026-05-08 18:55 | -22.01197 | 166.20847 | 35 ft | 20 kts | 301° |
| 2026-05-08 18:56 | -22.01051 | 166.20586 | 31 ft | 21 kts | 302° |
| 2026-05-08 18:56 | -22.00979 | 166.20460 | 31 ft | 21 kts | 301° |
| 2026-05-08 18:56 | -22.00890 | 166.20302 | 34 ft | 19 kts | 301° |
| 2026-05-08 18:56 | -22.00851 | 166.20230 | 36 ft | 18 kts | 301° |
| 2026-05-08 18:57 | -22.00769 | 166.20084 | 39 ft | 16 kts | 301° |
| 2026-05-08 18:57 | -22.00722 | 166.20027 | 40 ft | 11 kts | 329° |
| 2026-05-08 18:57 | -22.00701 | 166.19972 | 41 ft | 7 kts | 184° |
| 2026-05-08 18:57 | -22.00720 | 166.19987 | 41 ft | 0 kts | 118° |
| 2026-05-08 18:58 | -22.00738 | 166.20023 | 40 ft | 28 kts | 119° |
| 2026-05-08 18:58 | -22.00937 | 166.20380 | 32 ft | 92 kts | 120° |
| 2026-05-08 18:58 | -22.01720 | 166.21770 | 86 ft | 171 kts | 121° |
| 2026-05-08 18:59 | -22.02254 | 166.22696 | 637 ft | 166 kts | 121° |
| 2026-05-08 18:59 | -22.02811 | 166.23680 | 1155 ft | 171 kts | 120° |
| 2026-05-08 18:59 | -22.03460 | 166.24861 | 1788 ft | 175 kts | 119° |
| 2026-05-08 19:00 | -22.04526 | 166.26886 | 2854 ft | 179 kts | 118° |
| 2026-05-08 19:00 | -22.05421 | 166.27934 | 3250 ft | 197 kts | 152° |
| 2026-05-08 19:00 | -22.07007 | 166.28206 | 3599 ft | 221 kts | 193° |
| 2026-05-08 19:00 | -22.08523 | 166.27574 | 3973 ft | 242 kts | 208° |
| 2026-05-08 19:01 | -22.10052 | 166.26659 | 4328 ft | 264 kts | 211° |
| 2026-05-08 19:01 | -22.11303 | 166.25864 | 4600 ft | 270 kts | 212° |
| 2026-05-08 19:01 | -22.12807 | 166.24895 | 4911 ft | 272 kts | 213° |
| 2026-05-08 19:01 | -22.14136 | 166.23657 | 5202 ft | 271 kts | 238° |
| 2026-05-08 19:02 | -22.14509 | 166.20445 | 5764 ft | 272 kts | 289° |
| 2026-05-08 19:02 | -22.13699 | 166.18901 | 6208 ft | 279 kts | 312° |